LiveATC.Net - Listen to live air traffic control over the Internet!


ICAO: ENTO  IATA: TRF   Airport: Sandefjord Airport - Torp
City: Sandefjord
Country: Norway   Continent: Europe
ENTO METAR Weather: ENTO 170350Z AUTO 36006KT 6000 SG OVC004/// M01/M01 Q1016
ENTO Flight Activity (FlightAware)

ENTO Tower/App
Feed Status: UP   Listeners: 0
Listen in your browser - HTML5 player (in browser, HTML5)
Listen in your browser - requires Flash (in browser, requires Flash)
Click here to listen with your own player (launches your MP3 player)
ENTO Tower/App Audio Archives
FacilityFrequency
ENJB Tonsberg Airport - Jarlsberg - CTAF122.300
Farris Approach (TCA)134.050
Sandefjord Tower118.650

NOTICE

Unauthorized use prohibited. See LiveATC.net Terms of Service


Find LiveATC Audio Streams


Airport/ARTCC Code

Frequency Search
(e.g., 124.400, 128.75)
Site-wide search
 


Browse LiveATC Feeds
Top 50 LiveATC Feeds
Bad Weather Areas

LiveATC FAQ
Offer a LiveATC Feed
Contact LiveATC.net
Press Inquiries

LiveATC on iPhone
LiveATC on Android

Windows Phone
Windows 8/10

LiveATC Mobile
(Mobile browser)

ATC Audio Archives
Interesting Recordings

LiveATC Forums


Home Page
About LiveATC.net
Make a Donation
Terms of Use
Privacy Policy

Canadian Air Freqs

AIRMETs/SIGMETs

FAA Airport Status
Nat'l Airspace Status
Arrival Demand Charts


Server Software By:
Icecast.org
Liquidsoap